createdAt,value
2023-04-09T00:01:03.488Z,7.34
2023-04-09T00:03:43.973Z,7.36
2023-04-09T00:06:37.570Z,7.35
2023-04-09T00:09:16.099Z,7.36
2023-04-09T00:11:50.903Z,7.37
2023-04-09T00:14:26.039Z,7.40
2023-04-09T00:17:03.204Z,7.44
2023-04-09T00:19:39.277Z,7.47
2023-04-09T00:22:17.364Z,7.47
2023-04-09T00:24:52.917Z,7.48
2023-04-09T00:27:33.352Z,7.50
2023-04-09T00:30:11.817Z,7.48
2023-04-09T00:32:48.096Z,7.44
2023-04-09T00:35:22.225Z,7.40
2023-04-09T00:38:00.388Z,7.41
2023-04-09T00:40:39.452Z,7.45
2023-04-09T00:43:17.511Z,7.46
2023-04-09T00:45:55.386Z,7.48
2023-04-09T00:48:31.155Z,7.51
2023-04-09T00:51:08.753Z,7.52
2023-04-09T00:53:47.597Z,7.54
2023-04-09T00:56:24.275Z,7.56
2023-04-09T00:59:03.985Z,7.58
2023-04-09T01:01:40.566Z,7.58
2023-04-09T01:04:17.851Z,7.58
2023-04-09T01:07:00.268Z,7.56
2023-04-09T01:09:39.254Z,7.51
2023-04-09T01:12:28.494Z,7.45
2023-04-09T01:15:09.321Z,7.44
2023-04-09T01:17:53.101Z,7.48
2023-04-09T01:20:40.678Z,7.53
2023-04-09T01:23:22.013Z,7.48
2023-04-09T01:26:07.435Z,7.45
2023-04-09T01:28:55.373Z,7.46
2023-04-09T01:31:34.724Z,7.44
2023-04-09T01:34:13.210Z,7.49
2023-04-09T01:36:53.583Z,7.54
2023-04-09T01:39:32.395Z,7.57
2023-04-09T01:42:11.731Z,7.56
2023-04-09T01:44:49.481Z,7.58
2023-04-09T01:47:28.820Z,7.60
2023-04-09T01:50:07.544Z,7.58
2023-04-09T01:52:43.382Z,7.51
2023-04-09T01:55:18.110Z,7.43
2023-04-09T01:57:54.307Z,7.37
2023-04-09T02:00:37.422Z,7.37
2023-04-09T02:03:18.564Z,7.30
2023-04-09T02:06:02.424Z,7.31
2023-04-09T02:08:45.096Z,7.27
2023-04-09T02:11:21.468Z,7.30
2023-04-09T02:14:01.625Z,7.33
2023-04-09T02:16:37.851Z,7.36
2023-04-09T02:19:15.288Z,7.33
2023-04-09T02:21:53.376Z,7.28
2023-04-09T02:24:31.283Z,7.29
2023-04-09T02:27:07.743Z,7.20
2023-04-09T02:29:47.022Z,7.11
2023-04-09T02:32:21.762Z,7.05
2023-04-09T02:34:56.329Z,6.97
2023-04-09T02:37:32.322Z,6.91
2023-04-09T02:40:20.903Z,6.92
2023-04-09T02:42:57.451Z,6.91
2023-04-09T02:45:35.237Z,6.87
2023-04-09T02:48:12.184Z,6.81
2023-04-09T02:50:51.129Z,6.73
2023-04-09T02:53:26.644Z,6.65
2023-04-09T02:56:03.305Z,6.62
2023-04-09T02:58:39.022Z,6.64
2023-04-09T03:01:16.637Z,6.69
2023-04-09T03:03:56.902Z,6.68
2023-04-09T03:06:34.441Z,6.65
2023-04-09T03:09:12.125Z,6.64
2023-04-09T03:11:48.230Z,6.62
2023-04-09T03:14:24.852Z,6.57
2023-04-09T03:17:02.153Z,6.54
2023-04-09T03:19:42.182Z,6.53
2023-04-09T03:22:19.145Z,6.52
2023-04-09T03:24:58.526Z,6.54
2023-04-09T03:27:36.335Z,6.54
2023-04-09T03:30:17.359Z,6.57
2023-04-09T03:32:54.123Z,6.55
2023-04-09T03:35:34.394Z,6.50
2023-04-09T03:38:12.832Z,6.45
2023-04-09T03:40:49.255Z,6.41
2023-04-09T03:43:24.447Z,6.42
2023-04-09T03:46:01.249Z,6.45
2023-04-09T03:48:38.237Z,6.40
2023-04-09T03:51:16.095Z,6.37
2023-04-09T03:53:58.534Z,6.33
2023-04-09T03:56:35.153Z,6.31
2023-04-09T03:59:10.423Z,6.31
2023-04-09T04:01:48.895Z,6.31
2023-04-09T04:04:26.418Z,6.29
2023-04-09T04:07:05.142Z,6.28
2023-04-09T04:09:49.482Z,6.27
2023-04-09T04:12:27.385Z,6.25
2023-04-09T04:15:18.208Z,6.22
2023-04-09T04:17:55.748Z,6.21
2023-04-09T04:21:03.999Z,6.24
2023-04-09T04:23:40.818Z,6.20
2023-04-09T04:26:25.830Z,6.18
2023-04-09T04:29:01.624Z,6.23
2023-04-09T04:32:08.872Z,6.22
2023-04-09T04:34:45.212Z,6.24
2023-04-09T04:37:28.929Z,6.23
2023-04-09T04:40:11.367Z,6.23
2023-04-09T04:42:51.038Z,6.21
2023-04-09T04:45:28.479Z,6.18
2023-04-09T04:48:11.750Z,6.20
2023-04-09T04:50:48.281Z,6.22
2023-04-09T04:53:24.618Z,6.30
2023-04-09T04:56:01.856Z,6.38
2023-04-09T04:58:37.235Z,6.36
2023-04-09T05:01:13.002Z,6.31
2023-04-09T05:03:52.840Z,6.36
2023-04-09T05:06:37.908Z,6.42
2023-04-09T05:09:18.749Z,6.49
2023-04-09T05:12:06.139Z,6.52
2023-04-09T05:14:42.484Z,6.49
2023-04-09T05:17:18.803Z,6.47
2023-04-09T05:19:59.304Z,6.49
2023-04-09T05:22:44.626Z,6.50
2023-04-09T05:25:29.752Z,6.54
2023-04-09T05:28:05.534Z,6.62
2023-04-09T05:30:41.789Z,6.67
2023-04-09T05:33:20.463Z,6.69
2023-04-09T05:35:59.141Z,6.69
2023-04-09T05:38:34.847Z,6.72
2023-04-09T05:41:11.545Z,6.75
2023-04-09T05:43:56.089Z,6.78
2023-04-09T05:46:33.108Z,6.80
2023-04-09T05:49:13.835Z,6.84
2023-04-09T05:51:58.492Z,6.91
2023-04-09T05:54:35.024Z,6.95
2023-04-09T05:57:10.440Z,6.95
2023-04-09T05:59:47.385Z,6.98
2023-04-09T06:02:28.511Z,6.98
2023-04-09T06:05:06.282Z,6.98
2023-04-09T06:07:42.166Z,7.00
2023-04-09T06:10:25.557Z,7.01
2023-04-09T06:13:09.394Z,7.01
2023-04-09T06:15:50.517Z,7.01
2023-04-09T06:18:25.189Z,7.05
2023-04-09T06:21:08.823Z,7.10
2023-04-09T06:23:46.495Z,7.12
2023-04-09T06:26:23.788Z,7.16
2023-04-09T06:29:01.351Z,7.21
2023-04-09T06:31:38.640Z,7.25
2023-04-09T06:34:16.884Z,7.29
2023-04-09T06:37:01.309Z,7.32
2023-04-09T06:39:40.399Z,7.34
2023-04-09T06:42:21.402Z,7.36
2023-04-09T06:45:04.352Z,7.38
2023-04-09T06:47:41.649Z,7.39
2023-04-09T06:50:18.261Z,7.43
2023-04-09T06:52:56.174Z,7.47
2023-04-09T06:55:32.287Z,7.48
2023-04-09T06:58:09.819Z,7.51
2023-04-09T07:00:45.970Z,7.59
2023-04-09T07:03:41.842Z,7.69
2023-04-09T07:06:17.998Z,7.68
2023-04-09T07:08:54.815Z,7.62
2023-04-09T07:11:33.375Z,7.60
2023-04-09T07:14:12.571Z,7.58
2023-04-09T07:16:58.728Z,7.60
2023-04-09T07:19:34.408Z,7.65
2023-04-09T07:22:15.651Z,7.59
2023-04-09T07:24:58.376Z,7.64
2023-04-09T07:27:35.529Z,7.66
2023-04-09T07:30:18.315Z,7.68
2023-04-09T07:32:53.555Z,7.67
2023-04-09T07:35:30.832Z,7.74
2023-04-09T07:38:08.344Z,7.84
2023-04-09T07:40:49.001Z,7.90
2023-04-09T07:43:25.083Z,7.81
2023-04-09T07:46:00.272Z,7.81
2023-04-09T07:48:37.498Z,7.82
2023-04-09T07:51:15.131Z,7.86
2023-04-09T07:53:54.527Z,7.91
2023-04-09T07:56:32.004Z,7.96
2023-04-09T07:59:09.652Z,7.93
2023-04-09T08:01:45.849Z,7.97
2023-04-09T08:04:25.380Z,8.02
2023-04-09T08:07:02.882Z,8.06
2023-04-09T08:09:41.859Z,8.07
2023-04-09T08:12:30.712Z,8.11
2023-04-09T08:15:11.032Z,8.19
2023-04-09T08:18:05.564Z,8.21
2023-04-09T08:20:46.360Z,8.20
2023-04-09T08:23:24.624Z,8.21
2023-04-09T08:26:00.538Z,8.24
2023-04-09T08:28:35.820Z,8.30
2023-04-09T08:31:14.605Z,8.30
2023-04-09T08:33:51.823Z,8.38
2023-04-09T08:36:29.178Z,8.43
2023-04-09T08:39:06.198Z,8.52
2023-04-09T08:41:46.867Z,8.56
2023-04-09T08:44:30.702Z,8.53
2023-04-09T08:47:10.701Z,8.57
2023-04-09T08:49:45.911Z,8.58
2023-04-09T08:52:22.442Z,8.56
2023-04-09T08:54:59.385Z,8.60
2023-04-09T08:57:40.319Z,8.60
2023-04-09T09:00:21.738Z,8.69
2023-04-09T09:03:14.541Z,8.74
2023-04-09T09:05:54.560Z,8.76
2023-04-09T09:08:33.446Z,8.81
2023-04-09T09:11:27.159Z,8.93
2023-04-09T09:14:08.897Z,8.99
2023-04-09T09:16:50.515Z,9.01
2023-04-09T09:19:36.829Z,9.00
2023-04-09T09:22:15.629Z,9.05
2023-04-09T09:24:54.413Z,9.09
2023-04-09T09:27:41.525Z,9.15
2023-04-09T09:30:28.407Z,9.22
2023-04-09T09:33:10.275Z,9.21
2023-04-09T09:36:04.152Z,9.25
2023-04-09T09:38:57.781Z,9.25
2023-04-09T09:41:38.433Z,9.36
2023-04-09T09:44:13.529Z,9.39
2023-04-09T09:46:48.854Z,9.44
2023-04-09T09:49:40.453Z,9.49
2023-04-09T09:52:17.481Z,9.54
2023-04-09T09:54:57.220Z,9.64
2023-04-09T09:57:38.561Z,9.73
2023-04-09T10:00:28.001Z,9.80
2023-04-09T10:03:24.149Z,9.80
2023-04-09T10:06:02.569Z,9.93
2023-04-09T10:08:41.979Z,10.09
2023-04-09T10:11:18.655Z,10.18
2023-04-09T10:14:00.996Z,10.11
2023-04-09T10:16:41.228Z,10.14
2023-04-09T10:19:17.529Z,10.17
2023-04-09T10:22:05.021Z,10.23
2023-04-09T10:24:41.959Z,10.27
2023-04-09T10:27:19.788Z,10.32
2023-04-09T10:29:55.956Z,10.51
2023-04-09T10:32:40.918Z,10.63
2023-04-09T10:35:29.891Z,10.69
2023-04-09T10:38:05.030Z,10.71
2023-04-09T10:41:21.147Z,10.70
2023-04-09T10:43:59.873Z,10.74
2023-04-09T10:46:46.293Z,10.85
2023-04-09T10:49:23.540Z,10.99
2023-04-09T10:52:06.547Z,11.00
2023-04-09T10:54:51.438Z,10.86
2023-04-09T10:57:28.812Z,10.90
2023-04-09T11:00:04.468Z,10.94
2023-04-09T11:03:16.750Z,10.95
2023-04-09T11:05:57.885Z,11.01
2023-04-09T11:08:35.794Z,11.03
2023-04-09T11:11:21.728Z,11.03
2023-04-09T11:14:03.043Z,10.87
2023-04-09T11:16:41.533Z,10.87
2023-04-09T11:19:22.933Z,11.00
2023-04-09T11:22:00.075Z,11.08
2023-04-09T11:24:48.179Z,11.19
2023-04-09T11:27:26.126Z,11.16
2023-04-09T11:30:03.839Z,11.12
2023-04-09T11:32:40.798Z,11.11
2023-04-09T11:35:20.858Z,11.08
2023-04-09T11:37:58.710Z,11.09
2023-04-09T11:40:34.784Z,11.05
2023-04-09T11:43:11.987Z,11.06
2023-04-09T11:45:49.039Z,11.05
2023-04-09T11:48:25.437Z,11.03
2023-04-09T11:51:00.536Z,11.09
2023-04-09T11:53:39.785Z,11.14
2023-04-09T11:56:17.306Z,11.23
2023-04-09T11:58:52.906Z,11.28
2023-04-09T12:01:37.505Z,11.40
2023-04-09T12:04:14.695Z,11.43
2023-04-09T12:06:51.776Z,11.49
2023-04-09T12:09:29.811Z,11.58
2023-04-09T12:12:12.356Z,11.62
2023-04-09T12:15:01.884Z,11.64
2023-04-09T12:17:38.965Z,11.65
2023-04-09T12:20:15.550Z,11.66
2023-04-09T12:22:53.975Z,11.70
2023-04-09T12:25:35.841Z,11.80
2023-04-09T12:28:19.075Z,11.86
2023-04-09T12:30:55.791Z,11.90
2023-04-09T12:33:32.667Z,11.97
2023-04-09T12:36:08.436Z,12.02
2023-04-09T12:38:44.826Z,12.00
2023-04-09T12:41:22.786Z,12.02
2023-04-09T12:43:58.968Z,12.08
2023-04-09T12:46:33.623Z,12.07
2023-04-09T12:49:09.896Z,11.98
2023-04-09T12:51:49.806Z,11.93
2023-04-09T12:54:24.316Z,11.79
2023-04-09T12:57:00.409Z,11.75
2023-04-09T12:59:36.774Z,11.77
2023-04-09T13:02:17.154Z,11.87
2023-04-09T13:04:52.964Z,11.92
2023-04-09T13:07:29.968Z,11.92
2023-04-09T13:10:06.970Z,11.89
2023-04-09T13:12:44.159Z,11.85
2023-04-09T13:15:21.101Z,11.91
2023-04-09T13:17:56.788Z,11.96
2023-04-09T13:20:36.056Z,12.03
2023-04-09T13:23:15.769Z,11.97
2023-04-09T13:25:53.637Z,11.92
2023-04-09T13:28:31.370Z,11.97
2023-04-09T13:31:09.832Z,12.07
2023-04-09T13:33:48.178Z,12.17
2023-04-09T13:36:26.874Z,12.26
2023-04-09T13:39:06.675Z,12.39
2023-04-09T13:41:44.312Z,12.53
2023-04-09T13:44:21.077Z,12.63
2023-04-09T13:46:57.215Z,12.68
2023-04-09T13:49:33.883Z,12.70
2023-04-09T13:52:11.950Z,12.73
2023-04-09T13:54:48.709Z,12.81
2023-04-09T13:57:24.785Z,12.76
2023-04-09T14:00:02.876Z,12.68
2023-04-09T14:02:41.674Z,12.62
2023-04-09T14:05:18.085Z,12.67
2023-04-09T14:07:54.097Z,12.70
2023-04-09T14:10:31.771Z,12.72
2023-04-09T14:13:13.281Z,12.79
2023-04-09T14:15:51.305Z,12.76
2023-04-09T14:18:27.793Z,12.69
2023-04-09T14:21:04.526Z,12.62
2023-04-09T14:23:43.455Z,12.59
2023-04-09T14:26:23.497Z,12.61
2023-04-09T14:29:00.128Z,12.58
2023-04-09T14:31:47.822Z,12.57
2023-04-09T14:34:25.155Z,12.57
2023-04-09T14:36:59.893Z,12.56
2023-04-09T14:39:37.037Z,12.53
2023-04-09T14:42:13.510Z,12.48
2023-04-09T14:44:50.798Z,12.42
2023-04-09T14:47:27.278Z,12.46
2023-04-09T14:50:03.115Z,12.44
2023-04-09T14:52:39.542Z,12.39
2023-04-09T14:55:18.927Z,12.36
2023-04-09T14:57:57.134Z,12.30
2023-04-09T15:00:32.496Z,12.27
2023-04-09T15:03:14.159Z,12.30
2023-04-09T15:05:51.242Z,12.31
2023-04-09T15:08:25.721Z,12.28
2023-04-09T15:11:01.640Z,12.35
2023-04-09T15:13:37.632Z,12.37
2023-04-09T15:16:23.187Z,12.38
2023-04-09T15:19:00.206Z,12.44
2023-04-09T15:21:36.957Z,12.44
2023-04-09T15:24:12.441Z,12.42
2023-04-09T15:26:48.994Z,12.39
2023-04-09T15:29:26.503Z,12.37
2023-04-09T15:32:21.330Z,12.38
2023-04-09T15:34:57.466Z,12.36
2023-04-09T15:37:32.296Z,12.39
2023-04-09T15:40:10.637Z,12.41
2023-04-09T15:42:46.410Z,12.38
2023-04-09T15:45:23.736Z,12.41
2023-04-09T15:47:59.305Z,12.47
2023-04-09T15:50:35.417Z,12.49
2023-04-09T15:53:12.774Z,12.44
2023-04-09T15:55:50.187Z,12.44
2023-04-09T15:58:25.997Z,12.40
2023-04-09T16:01:02.599Z,12.30
2023-04-09T16:03:52.118Z,12.26
2023-04-09T16:06:28.123Z,12.21
2023-04-09T16:09:04.628Z,12.19
2023-04-09T16:11:41.406Z,12.18
2023-04-09T16:14:22.714Z,12.22
2023-04-09T16:16:59.482Z,12.18
2023-04-09T16:19:37.178Z,12.11
2023-04-09T16:22:16.555Z,12.10
2023-04-09T16:24:54.170Z,12.05
2023-04-09T16:27:29.586Z,11.97
2023-04-09T16:30:06.181Z,11.94
2023-04-09T16:32:43.083Z,11.96
2023-04-09T16:35:18.592Z,11.92
2023-04-09T16:37:57.344Z,11.93
2023-04-09T16:40:32.044Z,11.96
2023-04-09T16:43:09.808Z,11.92
2023-04-09T16:45:47.301Z,11.84
2023-04-09T16:48:23.187Z,11.87
2023-04-09T16:50:57.891Z,11.85
2023-04-09T16:53:35.036Z,11.84
2023-04-09T16:56:12.027Z,11.82
2023-04-09T16:58:48.223Z,11.81
2023-04-09T17:01:27.373Z,11.74
2023-04-09T17:04:03.235Z,11.68
2023-04-09T17:06:40.242Z,11.64
2023-04-09T17:09:18.654Z,11.56
2023-04-09T17:11:55.203Z,11.52
2023-04-09T17:14:30.524Z,11.50
2023-04-09T17:17:06.358Z,11.48
2023-04-09T17:19:46.555Z,11.50
2023-04-09T17:22:23.939Z,11.52
2023-04-09T17:25:03.193Z,11.50
2023-04-09T17:27:39.402Z,11.44
2023-04-09T17:30:18.957Z,11.41
2023-04-09T17:32:57.301Z,11.39
2023-04-09T17:35:33.062Z,11.42
2023-04-09T17:38:14.576Z,11.42
2023-04-09T17:40:51.301Z,11.40
2023-04-09T17:43:27.333Z,11.40
2023-04-09T17:46:03.861Z,11.38
2023-04-09T17:48:41.425Z,11.36
2023-04-09T17:51:23.805Z,11.29
2023-04-09T17:54:00.257Z,11.24
2023-04-09T17:56:40.073Z,11.14
2023-04-09T17:59:17.532Z,11.06
2023-04-09T18:02:06.154Z,10.98
2023-04-09T18:04:44.524Z,10.88
2023-04-09T18:07:25.399Z,10.91
2023-04-09T18:10:01.946Z,10.92
2023-04-09T18:12:38.643Z,10.92
2023-04-09T18:15:18.981Z,10.94
2023-04-09T18:17:53.966Z,10.95
2023-04-09T18:20:34.406Z,10.97
2023-04-09T18:23:12.107Z,10.97
2023-04-09T18:25:48.524Z,10.97
2023-04-09T18:28:24.706Z,10.95
2023-04-09T18:31:00.909Z,10.94
2023-04-09T18:33:35.480Z,10.92
2023-04-09T18:36:12.078Z,10.92
2023-04-09T18:38:54.201Z,10.90
2023-04-09T18:41:32.924Z,10.90
2023-04-09T18:44:09.145Z,10.88
2023-04-09T18:46:45.170Z,10.89
2023-04-09T18:49:21.458Z,10.91
2023-04-09T18:51:57.905Z,10.91
2023-04-09T18:54:37.389Z,10.90
2023-04-09T18:57:14.009Z,10.91
2023-04-09T18:59:52.503Z,10.88
2023-04-09T19:02:33.081Z,10.82
2023-04-09T19:05:12.172Z,10.77
2023-04-09T19:07:48.103Z,10.69
2023-04-09T19:10:26.756Z,10.62
2023-04-09T19:13:03.449Z,10.61
2023-04-09T19:15:39.812Z,10.60
2023-04-09T19:18:16.250Z,10.58
2023-04-09T19:20:54.939Z,10.53
2023-04-09T19:23:35.129Z,10.51
2023-04-09T19:26:18.604Z,10.48
2023-04-09T19:28:55.989Z,10.45
2023-04-09T19:31:38.187Z,10.45
2023-04-09T19:34:14.148Z,10.43
2023-04-09T19:36:48.581Z,10.43
2023-04-09T19:39:28.331Z,10.41
2023-04-09T19:42:01.818Z,10.41
2023-04-09T19:44:38.617Z,10.40
2023-04-09T19:47:15.967Z,10.39
2023-04-09T19:49:52.816Z,10.35
2023-04-09T19:52:31.330Z,10.32
2023-04-09T19:55:06.826Z,10.32
2023-04-09T19:57:44.813Z,10.30
2023-04-09T20:00:24.062Z,10.23
2023-04-09T20:03:02.214Z,10.23
2023-04-09T20:05:40.507Z,10.21
2023-04-09T20:08:16.517Z,10.17
2023-04-09T20:10:52.986Z,10.12
2023-04-09T20:13:30.665Z,10.07
2023-04-09T20:16:07.038Z,10.03
2023-04-09T20:18:47.704Z,10.04
2023-04-09T20:21:24.401Z,10.02
2023-04-09T20:23:58.930Z,9.93
2023-04-09T20:26:38.098Z,9.90
2023-04-09T20:29:14.737Z,9.86
2023-04-09T20:31:50.720Z,9.79
2023-04-09T20:34:31.730Z,9.74
2023-04-09T20:37:07.152Z,9.70
2023-04-09T20:39:47.949Z,9.73
2023-04-09T20:42:25.141Z,9.77
2023-04-09T20:45:01.994Z,9.75
2023-04-09T20:47:39.307Z,9.73
2023-04-09T20:50:16.650Z,9.67
2023-04-09T20:52:53.328Z,9.66
2023-04-09T20:55:29.511Z,9.56
2023-04-09T20:58:06.508Z,9.43
2023-04-09T21:00:42.232Z,9.38
2023-04-09T21:03:18.864Z,9.28
2023-04-09T21:05:53.764Z,9.17
2023-04-09T21:08:29.753Z,9.10
2023-04-09T21:11:09.030Z,9.04
2023-04-09T21:13:54.503Z,8.95
2023-04-09T21:16:31.423Z,8.92
2023-04-09T21:19:08.899Z,8.86
2023-04-09T21:21:50.710Z,8.76
2023-04-09T21:24:31.369Z,8.66
2023-04-09T21:27:08.913Z,8.61
2023-04-09T21:29:53.652Z,8.57
2023-04-09T21:32:29.271Z,8.49
2023-04-09T21:35:12.048Z,8.47
2023-04-09T21:37:46.056Z,8.47
2023-04-09T21:40:23.983Z,8.48
2023-04-09T21:43:04.200Z,8.39
2023-04-09T21:45:40.784Z,8.37
2023-04-09T21:48:21.011Z,8.36
2023-04-09T21:50:58.675Z,8.36
2023-04-09T21:53:36.948Z,8.33
2023-04-09T21:56:17.072Z,8.22
2023-04-09T21:58:53.025Z,8.22
2023-04-09T22:01:29.921Z,8.14
2023-04-09T22:04:11.282Z,8.12
2023-04-09T22:06:51.121Z,8.10
2023-04-09T22:09:28.702Z,8.05
2023-04-09T22:12:07.078Z,8.00
2023-04-09T22:14:42.627Z,7.96
2023-04-09T22:17:19.866Z,7.89
2023-04-09T22:19:58.112Z,7.89
2023-04-09T22:22:39.133Z,7.86
2023-04-09T22:25:17.948Z,7.85
2023-04-09T22:27:57.809Z,7.84
2023-04-09T22:30:34.913Z,7.78
2023-04-09T22:33:10.844Z,7.71
2023-04-09T22:35:49.127Z,7.71
2023-04-09T22:38:25.752Z,7.72
2023-04-09T22:41:00.972Z,7.70
2023-04-09T22:43:37.086Z,7.75
2023-04-09T22:46:17.012Z,7.75
2023-04-09T22:48:55.131Z,7.68
2023-04-09T22:51:35.362Z,7.64
2023-04-09T22:54:13.154Z,7.56
2023-04-09T22:56:55.538Z,7.55
2023-04-09T22:59:40.208Z,7.55
2023-04-09T23:02:20.303Z,7.58
2023-04-09T23:05:03.062Z,7.53
2023-04-09T23:07:39.092Z,7.54
2023-04-09T23:10:19.111Z,7.50
2023-04-09T23:12:55.041Z,7.50
2023-04-09T23:15:33.886Z,7.48
2023-04-09T23:18:09.991Z,7.35
2023-04-09T23:20:47.044Z,7.28
2023-04-09T23:23:24.276Z,7.29
2023-04-09T23:26:00.115Z,7.30
2023-04-09T23:28:36.191Z,7.21
2023-04-09T23:31:12.021Z,7.14
2023-04-09T23:33:49.955Z,7.13
2023-04-09T23:36:32.751Z,7.02
2023-04-09T23:39:10.095Z,7.00
2023-04-09T23:41:48.388Z,7.03
2023-04-09T23:44:22.713Z,7.04
2023-04-09T23:47:00.335Z,7.07
2023-04-09T23:49:38.075Z,7.08
2023-04-09T23:52:18.086Z,7.07
2023-04-09T23:54:56.123Z,7.06
2023-04-09T23:57:35.223Z,7.08
